^^
Grace C. Lehan Memorial Weather Station Historical Data
Daily Summary for August 3, 2021 Units:  English    Metric   Both
Daily Weekly Monthly Yearly
  High: Low: Average:
Temperature: 33.4 °F 29.8 °F 31.5 °F
Dew Point: 30.2 °F 27.5 °F 28.8 °F
Humidity: 91.7% 88% 90%
Wind Speed: 0.4mph 0mph 0mph
Wind Gust: 4mph - -
Wind- - NW
Pressure: 30.15 in 30.08 in -
Precipitation: 0.00 in    
 
 
Tabular Data for August 3, 2021
Time Temperature Dew Point Pressure Wind Wind Speed Wind Gust Humidity Rainfall Rate (Hourly) solar
00:04 33.4 °F 30.2 °F 30.08 in Calm   4 mph 88% 0.00 in 0 W/m2
00:09 33.3 °F 30.2 °F 30.08 in Calm     88% 0.00 in 0 W/m2
00:14 33.3 °F 30.1 °F 30.09 in Calm     88% 0.00 in 0 W/m2
00:19 33.3 °F 30.1 °F 30.09 in Calm     88% 0.00 in 0 W/m2
00:24 33.2 °F 30.1 °F 30.09 in Calm     88% 0.00 in 0 W/m2
00:29 33.1 °F 30 °F 30.09 in Calm     88% 0.00 in 0 W/m2
00:34 33 °F 29.9 °F 30.10 in Calm     88% 0.00 in 0 W/m2
00:39 33 °F 29.8 °F 30.10 in Calm     88% 0.00 in 0 W/m2
00:44 32.9 °F 29.8 °F 30.10 in Calm     88% 0.00 in 0 W/m2
00:49 32.8 °F 29.7 °F 30.10 in Calm     88% 0.00 in 0 W/m2
00:54 32.7 °F 29.6 °F 30.10 in Calm     88% 0.00 in 0 W/m2
00:59 32.6 °F 29.4 °F 30.10 in Calm     88% 0.00 in 0 W/m2
01:04 32.5 °F 29.3 °F 30.10 in Calm     88% 0.00 in 0 W/m2
01:09 32.4 °F 29.3 °F 30.11 in Calm     88% 0.00 in 0 W/m2
01:14 32.3 °F 29.4 °F 30.11 in Calm     88.8% 0.00 in 0 W/m2
01:19 32.2 °F 29.4 °F 30.11 in WNW 0.1 mph 3 mph 89% 0.00 in 0 W/m2
01:24 32.2 °F 29.3 °F 30.11 in WNW 0.1 mph 3 mph 89% 0.00 in 0 W/m2
01:29 32.1 °F 29.2 °F 30.11 in WNW 0.2 mph 3 mph 89% 0.00 in 0 W/m2
01:34 32 °F 29.2 °F 30.11 in WNW 0.1 mph 3 mph 89% 0.00 in 0 W/m2
01:39 32 °F 29.1 °F 30.11 in WNW 0.1 mph 2 mph 89% 0.00 in 0 W/m2
01:44 31.9 °F 29.3 °F 30.12 in WNW 0.2 mph 3 mph 89.8% 0.00 in 0 W/m2
01:49 31.9 °F 29.2 °F 30.12 in NW 0.3 mph 3 mph 89.7% 0.00 in 0 W/m2
01:54 31.8 °F 29.1 °F 30.12 in NW 0.3 mph 3 mph 89.6% 0.00 in 0 W/m2
01:59 31.7 °F 29.1 °F 30.11 in NW 0.4 mph 3 mph 90% 0.00 in 0 W/m2
02:04 31.7 °F 29.1 °F 30.12 in NW 0.2 mph 3 mph 90% 0.00 in 0 W/m2
02:09 31.7 °F 29.1 °F 30.12 in Calm   3 mph 90% 0.00 in 0 W/m2
02:14 31.6 °F 29.1 °F 30.12 in NW 0.1 mph 3 mph 90% 0.00 in 0 W/m2
02:19 31.6 °F 29 °F 30.13 in NW 0.1 mph 3 mph 90% 0.00 in 0 W/m2
02:24 31.5 °F 29 °F 30.13 in Calm   3 mph 90% 0.00 in 0 W/m2
02:29 31.5 °F 28.9 °F 30.13 in Calm   3 mph 90% 0.00 in 0 W/m2
02:34 31.5 °F 28.9 °F 30.13 in Calm   3 mph 90% 0.00 in 0 W/m2
02:39 31.4 °F 28.8 °F 30.13 in Calm     90% 0.00 in 0 W/m2
02:44 31.4 °F 28.8 °F 30.13 in Calm     90% 0.00 in 0 W/m2
02:49 31.3 °F 28.7 °F 30.13 in Calm     90% 0.00 in 0 W/m2
02:54 31.2 °F 28.6 °F 30.13 in Calm     90% 0.00 in 0 W/m2
02:59 31.1 °F 28.6 °F 30.13 in Calm     90% 0.00 in 0 W/m2
03:04 31.1 °F 28.5 °F 30.13 in Calm     90% 0.00 in 0 W/m2
03:09 31 °F 28.4 °F 30.12 in Calm     90% 0.00 in 0 W/m2
03:14 30.9 °F 28.4 °F 30.12 in Calm     90.2% 0.00 in 0 W/m2
03:19 30.8 °F 28.5 °F 30.12 in Calm     91% 0.00 in 0 W/m2
03:24 30.7 °F 28.4 °F 30.13 in Calm     91% 0.00 in 0 W/m2
03:29 30.7 °F 28.3 °F 30.12 in Calm     91% 0.00 in 0 W/m2
03:34 30.6 °F 28.3 °F 30.12 in Calm     91% 0.00 in 0 W/m2
03:39 30.5 °F 28.2 °F 30.12 in Calm     91% 0.00 in 0 W/m2
03:44 30.4 °F 28 °F 30.12 in Calm     91% 0.00 in 0 W/m2
03:49 30.3 °F 28 °F 30.12 in Calm     91% 0.00 in 0 W/m2
03:54 30.2 °F 27.9 °F 30.12 in Calm     91% 0.00 in 0 W/m2
03:59 30.2 °F 27.8 °F 30.12 in Calm     91% 0.00 in 0 W/m2
04:00 30.1 °F 27.8 °F 30.11 in Calm     91% 0.00 in 0 W/m2
04:09 29.9 °F 27.6 °F 30.11 in Calm     91% 0.00 in 0 W/m2
04:14 29.9 °F 27.6 °F 30.11 in Calm     91% 0.00 in 0 W/m2
04:19 29.8 °F 27.5 °F 30.10 in NW 0.3 mph 3 mph 91% 0.00 in 0 W/m2
04:24 29.8 °F 27.5 °F 30.11 in Calm   3 mph 91% 0.00 in 0 W/m2
04:29 29.8 °F 27.5 °F 30.12 in Calm   3 mph 91% 0.00 in 0 W/m2
04:34 29.8 °F 27.5 °F 30.13 in NW 0.2 mph 3 mph 91% 0.00 in 0 W/m2
04:39 29.8 °F 27.6 °F 30.14 in NW 0.1 mph 3 mph 91.6% 0.00 in 0 W/m2
04:44 29.8 °F 27.6 °F 30.14 in Calm   3 mph 91.6% 0.00 in 0 W/m2
04:48 29.8 °F 27.7 °F 30.15 in Calm   3 mph 91.7% 0.00 in 0 W/m2
Hartford County Weather
Compliments of Weather Underground - 2 mb